Time;durP1;ratioP1;P1;durP2;ratioP2;P2;SDS_P1;SDS_P2;PMS_P1;PMS_P2;Temp;Humidity;BMP_temperature;BMP_pressure;BME280_temperature;BME280_humidity;BME280_pressure;Samples;Min_cycle;Max_cycle;Signal;HPM_P1;HPM_P2
2022/02/11 00:05:32;;;;;;;1.90;1.20;;;5.00;1.40;;;5.69;100.00;95744.61;647748;216;31545;-75
2022/02/11 00:07:55;;;;;;;3.35;1.73;;;4.90;1.40;;;5.67;100.00;95741.22;648066;216;31523;-76
2022/02/11 00:10:32;;;;;;;1.40;1.30;;;4.90;1.40;;;5.65;100.00;95736.91;646791;216;31570;-76
2022/02/11 00:13:17;;;;;;;2.20;1.12;;;5.00;1.40;;;5.64;100.00;95735.30;646601;212;31553;-76
2022/02/11 00:15:59;;;;;;;4.18;1.40;;;4.90;1.40;;;5.70;100.00;95732.19;647317;212;31566;-77
2022/02/11 00:18:40;;;;;;;1.80;1.57;;;4.90;1.40;;;5.78;100.00;95727.11;647394;212;31537;-76
2022/02/11 00:21:22;;;;;;;1.37;1.27;;;5.00;1.40;;;5.69;100.00;95725.95;648446;216;31575;-76
2022/02/11 00:24:04;;;;;;;2.30;1.17;;;4.90;1.40;;;5.66;100.00;95734.66;646676;216;31566;-76
2022/02/11 00:26:59;;;;;;;1.10;1.00;;;4.80;1.40;;;5.63;100.00;95731.53;647558;212;31500;-75
2022/02/11 00:30:13;;;;;;;1.87;1.50;;;4.70;1.40;;;5.57;100.00;95731.44;646229;212;31515;-77
2022/02/11 00:32:22;;;;;;;2.30;2.10;;;4.70;1.40;;;5.52;100.00;95724.92;647901;216;31617;-77
2022/02/11 00:35:56;;;;;;;1.73;1.62;;;4.80;1.40;;;5.51;100.00;95719.97;647608;212;31662;-77
2022/02/11 00:38:53;;;;;;;4.60;1.70;;;4.90;1.40;;;5.48;100.00;95716.52;648056;216;31562;-77
2022/02/11 00:42:32;;;;;;;1.25;1.15;;;4.80;1.40;;;5.41;100.00;95718.70;646370;216;31606;-77
2022/02/11 01:06:35;;;;;;;0.95;0.82;;;4.70;1.40;;;5.24;100.00;95680.63;641192;212;42332;-76
2022/02/11 01:09:16;;;;;;;1.42;1.12;;;4.90;1.40;;;5.31;100.00;95677.42;646876;216;31623;-76
2022/02/11 01:12:02;;;;;;;3.10;1.20;;;5.00;1.40;;;5.34;100.00;95658.66;648207;212;31870;-76
2022/02/11 01:14:47;;;;;;;1.53;1.43;;;5.00;1.40;;;5.34;100.00;95672.00;618643;226;31914;-77
2022/02/11 01:17:31;;;;;;;0.93;0.60;;;5.00;1.40;;;5.39;100.00;95668.75;646441;216;31767;-75
2022/02/11 01:20:12;;;;;;;1.25;1.15;;;5.10;1.40;;;5.45;100.00;95668.55;647134;216;31531;-78
2022/02/11 01:31:14;;;;;;;3.67;1.27;;;5.20;1.40;;;5.54;100.00;95650.55;646646;216;31621;-75
2022/02/11 01:36:08;;;;;;;1.00;1.00;;;5.20;1.40;;;5.57;100.00;95648.28;648144;212;31559;-76
2022/02/11 01:38:56;;;;;;;1.40;1.12;;;5.10;1.40;;;5.59;100.00;95640.95;647075;212;31556;-75
2022/02/11 01:47:23;;;;;;;1.00;1.00;;;5.00;1.40;;;5.64;100.00;95636.92;619938;225;42541;-75
2022/02/11 01:50:08;;;;;;;1.50;1.10;;;4.90;1.40;;;5.56;100.00;95638.66;647647;212;31588;-76
2022/02/11 01:52:44;;;;;;;2.13;1.13;;;4.70;1.40;;;5.53;100.00;95637.53;618903;226;31984;-77
2022/02/11 02:04:14;;;;;;;1.80;1.70;;;4.90;1.40;;;5.56;100.00;95622.31;645744;216;42440;-77
2022/02/11 02:08:45;;;;;;;1.40;1.10;;;5.00;1.40;;;5.55;100.00;95618.12;648307;212;31551;-76
2022/02/11 02:12:21;;;;;;;0.77;0.77;;;5.10;1.40;;;5.59;100.00;95616.91;648359;216;32245;-76
2022/02/11 02:15:01;;;;;;;0.73;0.73;;;5.10;1.40;;;5.65;100.00;95613.47;618386;226;42639;-76
2022/02/11 02:23:37;;;;;;;1.90;1.70;;;5.30;1.40;;;5.65;100.00;95610.72;619215;226;31810;-77
2022/02/11 02:26:39;;;;;;;1.00;0.90;;;5.30;1.40;;;5.57;100.00;95617.26;646514;216;42621;-75
2022/02/11 02:30:03;;;;;;;1.10;1.00;;;5.20;1.40;;;5.70;100.00;95611.31;647573;216;42119;-77
2022/02/11 02:36:14;;;;;;;0.77;0.65;;;5.30;1.40;;;5.79;100.00;95609.13;646745;216;31754;-76
2022/02/11 02:58:27;;;;;;;1.40;0.90;;;5.00;1.40;;;5.59;100.00;95581.09;646986;216;31510;-76
2022/02/11 03:15:23;;;;;;;1.60;1.50;;;5.00;1.40;;;5.52;100.00;95586.92;647910;216;31575;-75
2022/02/11 03:48:53;;;;;;;1.67;1.37;;;4.90;1.40;;;5.52;100.00;95582.41;645460;212;31821;-74
2022/02/11 03:50:35;;;;;;;0.80;0.80;;;4.80;1.40;;;5.30;100.00;95600.22;647031;212;31582;-77
2022/02/11 03:53:33;;;;;;;0.50;0.40;;;4.80;1.40;;;5.29;100.00;95603.13;617835;225;32593;-76
2022/02/11 03:56:06;;;;;;;1.20;0.77;;;4.80;1.40;;;5.32;100.00;95602.16;620331;226;31800;-76
2022/02/11 04:21:32;;;;;;;0.70;0.70;;;4.60;1.40;;;5.11;100.00;95626.29;620797;226;31795;-77
2022/02/11 04:28:04;;;;;;;1.25;1.02;;;4.50;1.40;;;5.05;100.00;95626.27;646550;216;42137;-77
2022/02/11 04:55:56;;;;;;;3.60;0.90;;;4.20;1.40;;;4.83;100.00;95623.85;641767;217;31496;-75
2022/02/11 05:04:04;;;;;;;0.82;0.37;;;4.30;1.40;;;4.82;100.00;95632.17;619516;222;32598;-77
2022/02/11 05:06:46;;;;;;;0.80;0.50;;;4.20;1.40;;;4.84;100.00;95635.70;639683;216;31746;-78
2022/02/11 05:09:29;;;;;;;0.60;0.50;;;4.20;1.40;;;4.79;100.00;95632.91;619131;222;31847;-77
2022/02/11 05:12:11;;;;;;;0.60;0.50;;;4.30;1.40;;;4.83;100.00;95635.11;619694;226;31836;-78
2022/02/11 05:17:30;;;;;;;0.40;0.20;;;4.30;1.40;;;4.85;100.00;95646.50;647500;212;31842;-78
2022/02/11 05:20:12;;;;;;;0.62;0.60;;;4.30;1.40;;;4.80;100.00;95645.81;621006;222;32075;-76
2022/02/11 05:22:55;;;;;;;1.00;0.40;;;4.30;1.40;;;4.83;100.00;95655.11;646961;216;31677;-77
2022/02/11 05:25:39;;;;;;;0.70;0.70;;;4.30;1.40;;;4.75;100.00;95654.70;618427;226;42474;-77
2022/02/11 05:28:21;;;;;;;0.80;0.75;;;4.30;1.40;;;4.72;100.00;95658.94;619479;222;31842;-77
2022/02/11 05:31:06;;;;;;;0.50;0.50;;;4.30;1.40;;;4.79;100.00;95656.59;647136;216;31571;-78
2022/02/11 05:35:52;;;;;;;1.00;0.80;;;4.30;1.40;;;4.76;100.00;95670.66;646444;212;31499;-77
2022/02/11 05:38:37;;;;;;;1.20;0.50;;;4.30;1.40;;;4.75;100.00;95667.33;646576;216;31624;-78
2022/02/11 05:41:18;;;;;;;0.40;0.40;;;4.30;1.40;;;4.84;100.00;95672.17;618322;226;31855;-77
2022/02/11 05:44:03;;;;;;;0.50;0.50;;;4.30;1.40;;;4.91;100.00;95684.34;632853;221;32490;-76
2022/02/11 05:46:45;;;;;;;1.08;0.90;;;4.30;1.40;;;4.86;100.00;95692.44;646824;212;31483;-77
2022/02/11 05:49:27;;;;;;;1.60;1.50;;;4.20;1.40;;;4.66;100.00;95701.98;647567;212;31478;-75
2022/02/11 05:52:09;;;;;;;0.90;0.80;;;4.00;1.40;;;4.40;100.00;95708.88;647437;212;31492;-78
2022/02/11 05:54:56;;;;;;;0.62;0.55;;;3.70;1.40;;;4.34;100.00;95713.18;645878;216;31624;-74
2022/02/11 05:57:38;;;;;;;1.40;0.90;;;3.60;1.40;;;4.16;100.00;95711.63;646362;216;31524;-75
2022/02/11 06:00:20;;;;;;;1.37;1.27;;;3.50;1.40;;;4.10;100.00;95717.59;619278;226;32007;-74
2022/02/11 06:03:02;;;;;;;1.70;1.60;;;3.40;1.40;;;4.01;100.00;95730.70;646497;216;31554;-74
2022/02/11 06:05:46;;;;;;;0.82;0.60;;;3.40;1.40;;;3.92;100.00;95733.58;646770;212;32310;-74
2022/02/11 06:08:28;;;;;;;;;;;3.40;1.40;;;3.93;100.00;95736.75;653393;216;24890;-75
2022/02/11 06:11:09;;;;;;;;;;;3.40;1.40;;;3.90;100.00;95748.86;654223;216;24981;-74
2022/02/11 06:13:50;;;;;;;;;;;3.30;1.40;;;3.87;100.00;95755.55;653405;216;24970;-76
2022/02/11 06:16:32;;;;;;;;;;;3.30;1.40;;;3.91;100.00;95763.45;653530;216;24882;-75
2022/02/11 06:19:16;;;;;;;;;;;3.30;1.40;;;3.88;100.00;95777.33;652708;212;25347;-74
2022/02/11 06:21:57;;;;;;;;;;;3.30;1.40;;;3.94;100.00;95777.42;652438;216;24909;-75
2022/02/11 06:24:42;;;;;;;;;;;3.40;1.40;;;3.93;100.00;95788.08;652683;216;24887;-74
2022/02/11 06:27:23;;;;;;;;;;;3.40;1.40;;;3.94;100.00;95786.37;653693;216;24967;-75
2022/02/11 06:30:06;;;;;;;;;;;3.40;1.40;;;3.94;100.00;95793.77;654255;216;24871;-74
2022/02/11 06:32:47;;;;;;;;;;;3.40;1.40;;;3.94;100.00;95796.73;653558;212;24929;-75
2022/02/11 06:35:54;;;;;;;;;;;3.40;1.40;;;3.93;100.00;95801.59;652410;216;24828;-75
2022/02/11 06:38:36;;;;;;;;;;;3.40;1.40;;;3.89;100.00;95819.17;653513;212;24818;-75
2022/02/11 06:41:17;;;;;;;;;;;3.40;1.40;;;3.86;100.00;95828.58;652880;212;24729;-75
2022/02/11 06:43:58;;;;;;;;;;;3.30;1.40;;;3.73;100.00;95836.55;653941;216;24853;-77
2022/02/11 06:46:40;;;;;;;;;;;3.20;1.40;;;3.68;100.00;95846.70;652216;216;24878;-76
2022/02/11 06:49:21;;;;;;;;;;;3.00;1.40;;;3.59;100.00;95858.94;653058;212;24738;-74
2022/02/11 06:52:09;;;;;;;;;;;2.90;1.40;;;3.53;100.00;95860.71;655065;216;24834;-80
2022/02/11 06:54:57;;;;;;;;;;;2.90;1.40;;;3.38;100.00;95875.27;652331;216;24858;-74
2022/02/11 06:57:38;;;;;;;;;;;2.70;1.40;;;3.26;100.00;95885.64;647823;216;25187;-73
2022/02/11 07:00:22;;;;;;;;;;;2.60;1.40;;;3.14;100.00;95897.45;653553;216;24851;-74
2022/02/11 07:03:04;;;;;;;;;;;2.50;1.40;;;3.07;100.00;95904.59;652784;216;24846;-76
2022/02/11 07:05:48;;;;;;;;;;;2.50;1.40;;;3.02;100.00;95918.81;652952;212;24820;-75
2022/02/11 07:08:29;;;;;;;;;;;2.40;1.40;;;3.00;100.00;95923.39;652996;212;24842;-76
2022/02/11 07:11:14;;;;;;;;;;;2.40;1.40;;;3.02;100.00;95935.26;652923;212;24819;-76
2022/02/11 07:13:55;;;;;;;;;;;2.50;1.40;;;3.05;100.00;95941.89;651915;216;24816;-77
2022/02/11 07:16:44;;;;;;;;;;;2.50;1.40;;;3.09;100.00;95951.64;648050;217;24729;-80
2022/02/11 07:19:30;;;;;;;;;;;2.50;1.40;;;3.08;100.00;95962.39;653531;216;24816;-75
2022/02/11 07:22:11;;;;;;;;;;;2.50;1.40;;;3.07;100.00;95970.03;635148;217;25366;-77
2022/02/11 07:24:58;;;;;;;;;;;2.50;1.40;;;3.06;100.00;95976.02;649468;215;24849;-80
2022/02/11 07:27:47;;;;;;;;;;;2.50;1.40;;;3.10;100.00;95988.36;652207;216;24824;-74
2022/02/11 07:30:28;;;;;;;;;;;2.50;1.40;;;3.09;100.00;95999.00;653541;212;25295;-76
2022/02/11 07:35:51;;;;;;;0.50;0.50;;;2.50;1.40;;;3.00;100.00;96013.73;644373;216;31999;-77
2022/02/11 07:38:33;;;;;;;;;;;2.50;1.40;;;2.95;100.00;96032.31;653111;216;25515;-74
2022/02/11 07:41:14;;;;;;;;;;;2.50;1.40;;;2.89;100.00;96039.77;648949;217;24731;-75
2022/02/11 07:43:55;;;;;;;;;;;2.40;1.40;;;2.89;100.00;96050.12;648331;216;24851;-74
2022/02/11 07:46:37;;;;;;;;;;;2.50;1.40;;;2.87;100.00;96059.61;648118;215;24753;-75
2022/02/11 07:49:21;;;;;;;;;;;2.40;1.40;;;2.88;100.00;96072.86;652488;216;24857;-75
2022/02/11 07:52:02;;;;;;;;;;;2.40;1.40;;;2.78;100.00;96079.06;652599;216;24764;-75
2022/02/11 07:54:47;;;;;;;;;;;2.30;1.40;;;2.73;100.00;96082.34;652056;216;25582;-76
2022/02/11 07:57:28;;;;;;;;;;;2.30;1.40;;;2.73;100.00;96105.38;652300;212;25062;-74
2022/02/11 08:00:11;;;;;;;;;;;2.20;1.40;;;2.69;100.00;96108.94;647329;217;24890;-75
2022/02/11 08:02:59;;;;;;;;;;;2.20;1.40;;;2.68;100.00;96119.61;654682;216;25041;-79
2022/02/11 08:05:47;;;;;;;;;;;2.20;1.40;;;2.46;100.00;96125.74;647595;214;24552;-74
2022/02/11 08:08:38;;;;;;;;;;;1.90;1.40;;;2.11;100.00;96139.29;650435;215;24784;-81
2022/02/11 08:11:25;;;;;;;;;;;1.70;1.40;;;1.93;100.00;96150.13;653737;216;24810;-75
2022/02/11 08:14:06;;;;;;;;;;;1.50;1.40;;;1.75;100.00;96152.46;649148;214;25347;-74
2022/02/11 08:16:48;;;;;;;;;;;1.40;1.40;;;1.70;100.00;96164.86;651469;216;24823;-76
2022/02/11 08:19:29;;;;;;;;;;;1.30;1.40;;;1.70;100.00;96172.34;649144;214;24826;-74
2022/02/11 08:22:10;;;;;;;;;;;1.30;1.40;;;1.70;100.00;96183.18;653851;212;24831;-74
2022/02/11 08:24:52;;;;;;;;;;;1.30;1.40;;;1.76;100.00;96191.98;647821;217;24846;-73
2022/02/11 08:27:33;;;;;;;;;;;1.30;1.40;;;1.75;100.00;96199.45;652646;216;24838;-74
2022/02/11 08:30:15;;;;;;;;;;;1.30;1.40;;;1.65;100.00;96211.00;653106;216;24750;-75
2022/02/11 08:32:56;;;;;;;;;;;1.20;1.40;;;1.63;100.00;96227.73;647898;215;25326;-74
2022/02/11 08:35:51;;;;;;;;;;;1.20;1.40;;;1.74;100.00;96230.64;649199;215;24996;-73
2022/02/11 08:38:32;;;;;;;;;;;1.30;1.40;;;1.89;100.00;96235.65;652614;216;24901;-74
2022/02/11 08:41:14;;;;;;;;;;;1.40;1.40;;;1.97;100.00;96234.19;652639;216;24856;-74
2022/02/11 08:43:55;;;;;;;;;;;1.50;1.40;;;2.09;100.00;96231.08;652791;212;25365;-74
2022/02/11 08:46:42;;;;;;;;;;;1.70;1.40;;;2.23;100.00;96235.81;625036;226;24877;-77
2022/02/11 08:49:27;;;;;;;;;;;1.80;1.40;;;2.41;100.00;96244.18;651833;216;24829;-75
2022/02/11 08:52:08;;;;;;;;;;;1.90;1.40;;;2.54;100.00;96247.02;653963;212;24815;-74
2022/02/11 08:54:49;;;;;;;;;;;2.00;1.40;;;2.53;100.00;96249.25;648408;215;24917;-74
2022/02/11 08:57:34;;;;;;;;;;;2.00;1.40;;;2.51;100.00;96260.00;651124;216;24743;-74
2022/02/11 09:00:16;;;;;;;;;;;2.10;1.40;;;2.57;100.00;96263.31;652376;212;25318;-74
2022/02/11 09:02:57;;;;;;;;;;;2.20;1.40;;;2.64;100.00;96273.55;648737;217;24834;-74
2022/02/11 09:05:38;;;;;;;;;;;2.30;1.40;;;2.78;100.00;96282.09;652301;212;24853;-74
2022/02/11 09:08:22;;;;;;;;;;;2.40;1.40;;;2.71;100.00;96283.07;653403;216;24844;-74
2022/02/11 09:11:04;;;;;;;;;;;2.40;1.40;;;2.74;100.00;96290.33;652195;216;24834;-75
2022/02/11 09:13:45;;;;;;;;;;;2.50;1.40;;;2.80;100.00;96303.09;652943;214;24851;-77
2022/02/11 09:16:26;;;;;;;;;;;2.50;1.40;;;2.98;100.00;96312.58;652815;216;24910;-74
2022/02/11 09:19:09;;;;;;;;;;;2.70;1.40;;;2.99;100.00;96307.25;653562;216;24834;-74
2022/02/11 09:21:49;;;;;;;;;;;2.80;1.40;;;3.08;100.00;96320.70;653472;212;24816;-74
2022/02/11 09:24:33;;;;;;;;;;;2.90;1.40;;;3.06;100.00;96326.98;654394;216;24823;-77
2022/02/11 09:27:17;;;;;;;;;;;2.90;1.40;;;3.25;100.00;96331.61;652087;216;24886;-75
2022/02/11 09:29:56;;;;;;;;;;;2.90;1.40;;;3.00;100.00;96339.73;652139;216;24829;-75
2022/02/11 09:32:37;;;;;;;;;;;2.50;1.40;;;2.87;100.00;96343.91;653921;216;24838;-76
2022/02/11 09:35:57;;;;;;;0.70;0.60;;;2.60;1.40;;;3.02;100.00;96354.87;645850;216;32084;-76
2022/02/11 09:38:39;;;;;;;1.83;0.88;;;2.80;1.40;;;3.28;100.00;96362.97;647881;216;42125;-76
2022/02/11 09:41:25;;;;;;;;;;;2.90;1.40;;;3.19;100.00;96371.61;654791;216;24834;-77
2022/02/11 09:44:05;;;;;;;;;;;2.70;1.40;;;3.01;100.00;96373.33;652496;216;24831;-75
2022/02/11 09:46:50;;;;;;;;;;;2.60;1.40;;;3.08;100.00;96379.97;621296;224;24875;-76
2022/02/11 09:49:18;;;;;;;;;;;2.70;1.40;;;3.29;100.00;96384.52;624009;228;25141;-76
2022/02/11 09:51:47;;;;;;;;;;;2.90;1.40;;;3.28;100.00;96387.44;617542;229;25119;-75
2022/02/11 09:54:34;;;;;;;;;;;3.00;1.40;;;3.25;100.00;96398.85;653957;216;24825;-79
2022/02/11 09:57:19;;;;;;;;;;;3.20;1.40;;;3.29;100.00;96415.71;653176;216;24836;-76
2022/02/11 09:59:58;;;;;;;;;;;3.00;1.40;;;3.13;100.00;96417.42;652365;216;24860;-76
2022/02/11 10:02:51;;;;;;;;;;;2.70;1.40;;;2.86;100.00;96422.98;653190;212;24804;-75
2022/02/11 10:05:21;;;;;;;;;;;2.50;1.40;;;2.71;100.00;96429.03;644126;220;24952;-75
2022/02/11 10:08:02;;;;;;;;;;;2.30;1.40;;;2.67;100.00;96447.39;642826;216;24852;-76
2022/02/11 10:10:52;;;;;;;;;;;2.20;1.40;;;2.59;100.00;96455.30;650484;215;24802;-79
2022/02/11 10:13:38;;;;;;;;;;;2.30;1.40;;;2.65;100.00;96462.17;652754;212;24817;-75
2022/02/11 10:16:18;;;;;;;;;;;2.40;1.40;;;2.98;100.00;96466.41;652273;212;24825;-77
2022/02/11 10:19:05;;;;;;;;;;;2.60;1.40;;;2.90;100.00;96473.00;654570;216;24842;-79
2022/02/11 10:21:51;;;;;;;;;;;2.40;1.40;;;2.79;100.00;96471.02;653406;216;24921;-76
2022/02/11 10:24:38;;;;;;;;;;;2.30;1.40;;;2.72;100.00;96471.39;655003;216;25165;-78
2022/02/11 10:27:30;;;;;;;;;;;2.50;1.40;;;2.97;100.00;96472.69;648859;214;25293;-76
2022/02/11 10:30:22;;;;;;;;;;;3.00;1.40;;;4.15;100.00;96475.41;650481;216;24816;-78
2022/02/11 10:35:57;;;;;;;1.20;1.10;;;5.20;1.40;;;5.29;100.00;96486.42;648196;216;31625;-78
2022/02/11 10:38:39;;;;;;;2.70;1.60;;;5.50;1.40;;;5.03;100.00;96483.56;647095;216;31580;-78
2022/02/11 10:41:21;;;;;;;0.82;0.82;;;5.00;1.40;;;6.00;100.00;96489.66;620768;226;31848;-78
2022/02/11 10:46:41;;;;;;;1.60;1.00;;;7.00;1.40;;;6.91;100.00;96483.32;646228;216;31547;-78
2022/02/11 10:49:34;;;;;;;0.80;0.70;;;5.70;1.40;;;6.00;100.00;96497.58;647625;212;31661;-78
2022/02/11 10:52:21;;;;;;;0.80;0.60;;;3.80;1.40;;;4.92;100.00;96486.63;647060;212;31538;-77
2022/02/11 10:55:05;;;;;;;1.10;1.00;;;3.70;1.40;;;4.98;100.00;96482.27;620458;226;31834;-77
2022/02/11 10:57:46;;;;;;;0.50;0.50;;;5.40;1.40;;;4.75;100.00;96480.30;647078;216;31494;-77
2022/02/11 11:00:31;;;;;;;1.50;0.70;;;3.90;1.40;;;4.83;100.00;96488.27;647141;212;31670;-77
2022/02/11 11:03:14;;;;;;;1.50;0.60;;;4.70;1.40;;;6.32;100.00;96489.96;643785;215;42066;-76
2022/02/11 11:05:56;;;;;;;0.80;0.80;;;7.10;1.40;;;6.89;100.00;96483.47;647133;216;31536;-77
2022/02/11 11:08:38;;;;;;;1.00;0.80;;;7.30;1.40;;;5.35;100.00;96514.38;646154;216;31494;-76
2022/02/11 11:11:21;;;;;;;0.90;0.50;;;3.80;1.40;;;5.40;100.00;96489.16;619474;222;31984;-77
2022/02/11 11:14:04;;;;;;;2.20;1.27;;;6.10;1.40;;;8.62;100.00;96483.69;619118;226;32209;-78
2022/02/11 11:16:45;;;;;;;2.50;0.80;;;9.70;1.40;;;9.51;87.16;96483.90;646976;216;31555;-77
2022/02/11 11:19:27;;;;;;;1.75;0.70;;;9.30;1.40;;;9.61;86.48;96474.20;646597;216;31970;-76
2022/02/11 11:24:48;;;;;;;1.15;0.70;;;8.40;1.40;;;9.60;85.13;96472.14;645787;212;32118;-76
2022/02/11 11:27:42;;;;;;;1.50;0.70;;;8.30;1.40;;;10.21;82.86;96471.06;620298;223;31883;-77
2022/02/11 11:30:28;;;;;;;1.50;0.70;;;8.40;1.40;;;8.49;81.02;96474.48;646930;216;31933;-77
2022/02/11 11:38:39;;;;;;;1.30;0.90;;;8.50;1.40;;;9.96;81.75;96464.75;646335;212;31697;-77
2022/02/11 11:41:22;;;;;;;1.10;1.00;;;9.50;1.40;;;10.38;75.71;96467.82;619205;222;31810;-75
2022/02/11 11:44:16;;;;;;;1.20;0.90;;;9.50;1.40;;;10.86;72.45;96465.69;647030;212;31588;-76
2022/02/11 11:47:02;;;;;;;1.10;0.70;;;9.80;1.40;;;9.82;73.24;96470.06;645862;216;31478;-77
2022/02/11 11:49:43;;;;;;;0.70;0.60;;;8.20;1.40;;;8.39;83.40;96472.94;646935;212;31557;-78
2022/02/11 11:52:24;;;;;;;1.37;0.60;;;6.20;1.40;;;7.07;93.96;96470.50;620736;225;32467;-75
2022/02/11 11:55:15;;;;;;;0.60;0.60;;;7.10;1.40;;;8.86;80.18;96460.56;618848;226;31921;-77
2022/02/11 11:57:56;;;;;;;1.90;0.80;;;8.90;1.40;;;9.59;70.49;96453.68;646107;216;31507;-77
2022/02/11 12:00:39;;;;;;;1.57;0.73;;;9.80;1.40;;;8.98;68.80;96455.52;647542;212;31492;-77
2022/02/11 12:03:20;;;;;;;1.50;0.77;;;7.00;1.40;;;7.53;81.92;96468.52;647378;216;31512;-76
2022/02/11 12:06:19;;;;;;;0.93;0.80;;;7.00;1.40;;;7.41;87.34;96456.22;644213;212;31696;-78
2022/02/11 12:09:00;;;;;;;1.10;1.00;;;7.90;1.40;;;9.60;82.18;96452.86;646786;212;42297;-76
2022/02/11 12:11:41;;;;;;;1.00;0.80;;;10.10;1.40;;;8.57;77.12;96455.67;647083;216;42130;-76
2022/02/11 12:14:23;;;;;;;1.43;0.90;;;7.10;1.40;;;6.79;85.22;96459.25;648779;212;42118;-75
2022/02/11 12:17:08;;;;;;;1.63;0.87;;;5.10;1.40;;;6.87;91.39;96457.33;645862;216;31689;-77
2022/02/11 12:19:50;;;;;;;1.57;0.60;;;7.70;1.40;;;8.13;82.59;96462.17;647236;212;31509;-76
2022/02/11 12:22:34;;;;;;;1.80;1.20;;;9.50;1.40;;;8.31;77.94;96464.32;647945;212;32069;-77
2022/02/11 12:28:03;;;;;;;1.40;1.00;;;4.80;1.40;;;5.80;89.37;96479.92;647148;216;31510;-77
2022/02/11 12:30:45;;;;;;;1.50;1.30;;;4.60;1.40;;;5.72;94.07;96481.84;619643;222;32413;-77
2022/02/11 12:35:55;;;;;;;0.90;0.62;;;4.60;1.40;;;5.25;100.00;96485.45;648874;213;31699;-78
2022/02/11 12:38:37;;;;;;;1.00;0.90;;;4.60;1.40;;;6.21;99.35;96476.88;620160;222;31876;-77
2022/02/11 12:41:19;;;;;;;0.55;0.50;;;6.10;1.40;;;6.46;91.69;96478.80;647182;216;31859;-76
2022/02/11 12:44:02;;;;;;;0.70;0.52;;;5.50;1.40;;;5.72;92.20;96475.86;646924;212;31511;-77
2022/02/11 12:46:45;;;;;;;1.20;0.70;;;5.00;1.40;;;5.92;89.24;96471.89;647969;216;31536;-77
2022/02/11 12:49:27;;;;;;;3.10;0.70;;;4.90;1.40;;;5.29;87.65;96479.13;647926;216;32083;-77
2022/02/11 12:52:09;;;;;;;0.88;0.50;;;4.50;1.40;;;5.20;91.53;96477.02;648181;216;31853;-75
2022/02/11 12:54:59;;;;;;;0.60;0.50;;;4.60;1.40;;;5.03;93.15;96471.95;646692;212;42102;-77
2022/02/11 12:57:43;;;;;;;0.80;0.50;;;4.40;1.40;;;5.92;91.08;96473.45;646755;212;31481;-77
2022/02/11 13:00:26;;;;;;;0.70;0.60;;;6.20;1.40;;;5.95;90.56;96464.81;647500;216;42158;-75
2022/02/11 13:03:07;;;;;;;1.10;0.50;;;5.60;1.40;;;6.79;86.30;96460.27;647715;216;31507;-76
2022/02/11 13:05:51;;;;;;;0.60;0.40;;;6.50;1.40;;;6.17;87.87;96468.91;619333;222;32522;-78
2022/02/11 13:08:31;;;;;;;0.50;0.40;;;5.40;1.40;;;6.09;92.12;96467.66;647504;212;31502;-75
2022/02/11 13:11:14;;;;;;;0.70;0.50;;;6.60;1.40;;;6.58;87.80;96469.09;648050;216;31672;-77
2022/02/11 13:14:04;;;;;;;0.60;0.40;;;5.70;1.40;;;5.94;89.92;96481.81;645578;212;31632;-77
2022/02/11 13:16:45;;;;;;;1.30;0.90;;;4.90;1.40;;;5.53;91.99;96490.69;648734;216;31527;-77
2022/02/11 13:19:27;;;;;;;1.30;1.20;;;4.70;1.40;;;5.29;94.39;96488.03;647145;216;31525;-75
2022/02/11 13:22:08;;;;;;;0.80;0.68;;;4.50;1.40;;;5.35;93.64;96486.90;620490;226;31902;-77
2022/02/11 13:24:50;;;;;;;1.10;0.90;;;4.60;1.40;;;5.71;95.55;96481.83;647128;216;31490;-77
2022/02/11 13:27:42;;;;;;;1.02;0.52;;;5.30;1.40;;;5.33;95.51;96482.95;646586;212;31479;-77
2022/02/11 13:30:31;;;;;;;0.68;0.68;;;4.70;1.40;;;5.63;94.69;96484.89;647662;216;31615;-77
2022/02/11 13:35:51;;;;;;;2.50;0.70;;;8.60;1.40;;;8.15;78.52;96473.52;646510;216;31481;-77
2022/02/11 13:38:33;;;;;;;0.50;0.40;;;7.10;1.40;;;6.63;83.12;96481.86;646679;216;31500;-77
2022/02/11 13:41:15;;;;;;;0.80;0.40;;;5.50;1.40;;;6.11;88.67;96492.29;647375;216;31522;-77
2022/02/11 13:43:58;;;;;;;2.73;0.50;;;4.90;1.40;;;5.73;89.82;96495.95;620660;222;32008;-77
2022/02/11 13:46:50;;;;;;;1.00;0.52;;;4.60;1.40;;;5.40;95.12;96499.48;631427;217;31732;-76
2022/02/11 13:49:38;;;;;;;0.70;0.52;;;4.50;1.40;;;5.20;97.91;96501.75;647087;216;32492;-77
2022/02/11 13:54:58;;;;;;;1.60;0.60;;;4.20;1.40;;;4.82;100.00;96506.38;620584;226;31792;-77
2022/02/11 13:57:40;;;;;;;0.73;0.65;;;4.10;1.40;;;4.69;100.00;96508.98;646608;216;31545;-77
2022/02/11 14:00:37;;;;;;;0.40;0.35;;;4.10;1.40;;;4.74;100.00;96493.45;618763;225;31902;-77
2022/02/11 14:03:21;;;;;;;0.50;0.47;;;4.10;1.40;;;4.86;100.00;96513.14;648273;216;32320;-77
2022/02/11 14:06:04;;;;;;;0.50;0.30;;;4.20;1.40;;;4.85;99.87;96516.83;642806;212;31687;-77
2022/02/11 14:08:45;;;;;;;0.60;0.50;;;4.20;1.40;;;4.95;98.74;96513.98;647208;216;31517;-77
2022/02/11 14:11:29;;;;;;;1.50;0.90;;;4.20;1.40;;;4.93;97.63;96513.68;646063;216;32426;-77
2022/02/11 14:14:12;;;;;;;2.20;0.62;;;4.20;1.40;;;4.94;99.57;96519.34;646280;212;31586;-78
2022/02/11 14:16:55;;;;;;;0.70;0.70;;;4.20;1.40;;;4.77;97.72;96520.58;620149;222;31843;-77
2022/02/11 14:19:38;;;;;;;0.90;0.80;;;4.20;1.40;;;4.83;100.00;96532.28;619101;226;31858;-77
2022/02/11 14:22:17;;;;;;;0.70;0.40;;;4.20;1.40;;;4.93;100.00;96544.05;647394;216;31494;-77
2022/02/11 14:24:59;;;;;;;0.50;0.40;;;4.20;1.40;;;4.92;100.00;96551.76;646928;212;32291;-77
2022/02/11 14:27:40;;;;;;;0.70;0.60;;;4.20;1.40;;;4.92;97.75;96550.80;647204;216;31660;-77
2022/02/11 14:30:23;;;;;;;0.60;0.50;;;4.20;1.40;;;4.92;98.21;96555.36;646932;216;31575;-78
2022/02/11 14:35:51;;;;;;;3.00;0.50;;;4.50;1.40;;;4.97;94.06;96550.50;648613;212;31554;-77
2022/02/11 14:38:33;;;;;;;0.55;0.55;;;4.40;1.40;;;5.03;99.30;96557.53;619805;226;31979;-79
2022/02/11 14:44:10;;;;;;;0.40;0.30;;;5.60;1.40;;;5.74;92.67;96559.83;647162;212;31607;-77
2022/02/11 14:46:55;;;;;;;1.52;0.50;;;5.30;1.40;;;6.41;91.12;96562.23;618733;226;32125;-78
2022/02/11 14:49:39;;;;;;;1.10;0.50;;;6.80;1.40;;;7.35;85.50;96552.91;647850;212;31912;-77
2022/02/11 14:54:58;;;;;;;0.80;0.50;;;8.00;1.40;;;7.66;78.95;96555.47;647470;212;31516;-78
2022/02/11 14:57:39;;;;;;;0.70;0.70;;;7.90;1.40;;;7.44;76.97;96565.74;642794;215;31476;-78
2022/02/11 15:03:01;;;;;;;0.70;0.40;;;6.10;1.40;;;6.82;83.14;96575.06;618766;226;32060;-77
2022/02/11 15:05:45;;;;;;;3.50;0.60;;;5.70;1.40;;;6.27;85.12;96582.97;617876;226;32136;-78
2022/02/11 15:08:27;;;;;;;0.73;0.73;;;5.70;1.40;;;6.54;86.46;96581.66;649059;212;31501;-78
2022/02/11 15:11:09;;;;;;;0.50;0.40;;;6.30;1.40;;;6.65;82.95;96581.79;647249;212;31519;-78
2022/02/11 15:13:57;;;;;;;0.40;0.30;;;5.40;1.40;;;5.96;85.60;96589.62;645990;216;31512;-76
2022/02/11 15:16:45;;;;;;;0.40;0.40;;;4.70;1.40;;;5.25;91.86;96590.36;647524;216;31498;-78
2022/02/11 15:19:26;;;;;;;0.50;0.40;;;4.60;1.40;;;5.12;96.26;96591.55;642639;217;31499;-77
2022/02/11 15:22:08;;;;;;;0.60;0.40;;;4.10;1.40;;;4.97;98.45;96590.12;647723;216;31504;-78
2022/02/11 15:24:50;;;;;;;0.80;0.50;;;3.90;1.40;;;4.66;100.00;96606.52;647745;216;31486;-78
2022/02/11 15:27:32;;;;;;;1.30;0.40;;;3.90;1.40;;;4.88;100.00;96602.95;646849;216;31541;-78
2022/02/11 15:30:19;;;;;;;2.00;0.80;;;4.70;1.40;;;5.45;97.33;96602.82;646711;212;31646;-76
2022/02/11 15:35:51;;;;;;;1.85;0.93;;;4.70;1.40;;;5.73;95.13;96599.58;647501;216;32145;-78
2022/02/11 15:38:34;;;;;;;2.42;0.77;;;6.30;1.40;;;6.49;90.30;96594.92;620164;225;31909;-78
2022/02/11 15:41:18;;;;;;;0.55;0.55;;;6.30;1.40;;;6.16;86.92;96599.09;622004;222;33082;-78
2022/02/11 15:44:04;;;;;;;2.27;0.60;;;5.30;1.40;;;6.82;86.33;96598.88;619747;222;42476;-77
2022/02/11 15:46:46;;;;;;;0.70;0.40;;;5.10;1.40;;;6.13;86.24;96599.66;648053;212;31531;-78
2022/02/11 15:49:31;;;;;;;0.90;0.40;;;5.50;1.40;;;6.02;89.94;96602.05;621091;226;34107;-77
2022/02/11 15:52:13;;;;;;;1.00;0.70;;;6.20;1.40;;;6.31;87.53;96602.85;621412;226;31991;-79
2022/02/11 15:54:55;;;;;;;0.68;0.50;;;6.30;1.40;;;6.62;85.29;96603.47;647435;216;42728;-77
2022/02/11 15:57:38;;;;;;;0.50;0.40;;;6.60;1.40;;;6.53;81.20;96599.59;647972;216;31500;-77